Time;durP1;ratioP1;P1;durP2;ratioP2;P2;SDS_P1;SDS_P2;PMS_P1;PMS_P2;Temp;Humidity;BMP_temperature;BMP_pressure;BME280_temperature;BME280_humidity;BME280_pressure;Samples;Min_cycle;Max_cycle;Signal;HPM_P1;HPM_P2
2022/05/21 00:00:06;;;;;;;9.37;6.60;;;;;;;17.93;84.93;97732.38;6253829;28;20208;-70
2022/05/21 00:03:11;;;;;;;12.20;6.77;;;;;;;17.77;86.00;97752.91;6254698;28;20239;-69
2022/05/21 00:06:14;;;;;;;7.00;6.30;;;;;;;17.72;86.54;97773.94;6236315;28;20199;-69
2022/05/21 00:09:18;;;;;;;10.40;6.77;;;;;;;17.75;87.15;97797.63;6254955;28;20208;-69
2022/05/21 00:12:20;;;;;;;7.30;6.60;;;;;;;17.83;86.41;97778.94;6254110;28;20361;-69
2022/05/21 00:15:25;;;;;;;6.23;5.63;;;;;;;17.92;86.05;97775.28;6254100;28;20306;-69
2022/05/21 00:18:27;;;;;;;8.13;5.83;;;;;;;17.93;85.72;97777.78;6236265;28;20227;-69
2022/05/21 00:21:30;;;;;;;6.63;6.03;;;;;;;17.96;85.95;97776.63;6227791;28;20231;-69
2022/05/21 00:24:32;;;;;;;6.70;5.70;;;;;;;17.96;84.88;97769.44;6238643;28;20226;-69
2022/05/21 00:27:34;;;;;;;5.43;5.03;;;;;;;18.06;84.42;97779.97;6253413;28;20585;-69
2022/05/21 00:30:36;;;;;;;5.30;4.70;;;;;;;18.03;84.32;97807.81;6253959;28;20701;-69
2022/05/21 00:33:41;;;;;;;7.63;4.67;;;;;;;18.03;84.27;97833.69;6236529;28;20588;-69
2022/05/21 00:36:43;;;;;;;6.13;4.60;;;;;;;18.07;83.74;97843.03;6253395;28;20588;-68
2022/05/21 00:39:46;;;;;;;7.50;4.20;;;;;;;18.12;82.81;97824.69;6252452;28;20706;-68
2022/05/21 00:42:49;;;;;;;5.40;4.63;;;;;;;18.18;82.57;97818.66;6252510;28;20249;-69
2022/05/21 00:45:51;;;;;;;6.53;4.13;;;;;;;18.16;82.70;97815.34;6251371;28;20235;-69
2022/05/21 00:49:01;;;;;;;11.53;4.37;;;;;;;18.03;83.67;97837.22;6211374;28;20224;-69
2022/05/21 00:52:14;;;;;;;4.60;3.80;;;;;;;17.92;82.91;97793.97;6236770;28;20575;-68
2022/05/21 00:55:29;;;;;;;8.23;3.50;;;;;;;17.90;82.75;97761.25;6253129;28;20239;-68
2022/05/21 01:02:03;;;;;;;3.87;3.07;;;;;;;17.88;82.44;97653.75;6252451;28;20817;-68
2022/05/21 01:05:08;;;;;;;3.33;2.40;;;;;;;17.77;82.85;97705.66;6251786;28;20722;-69
2022/05/21 01:08:11;;;;;;;5.13;3.27;;;;;;;17.72;83.42;97733.88;6253586;28;20231;-69
2022/05/21 01:11:17;;;;;;;7.20;3.40;;;;;;;17.69;83.09;97735.03;6253106;28;20227;-68
2022/05/21 01:14:22;;;;;;;6.00;3.20;;;;;;;17.76;82.78;97728.06;6253116;28;20318;-68
2022/05/21 01:17:25;;;;;;;5.73;3.13;;;;;;;17.77;82.59;97720.88;6252689;28;20285;-69
2022/05/21 01:20:36;;;;;;;5.93;3.03;;;;;;;17.72;82.86;97723.22;6251268;28;20223;-69
2022/05/21 01:23:38;;;;;;;4.00;2.57;;;;;;;17.68;83.39;97728.88;6253174;28;20230;-69
2022/05/21 01:26:41;;;;;;;4.47;2.83;;;;;;;17.64;83.56;97719.53;6253735;28;20753;-69
2022/05/21 01:29:44;;;;;;;3.87;2.80;;;;;;;17.57;83.79;97721.16;6234836;28;20663;-69
2022/05/21 01:32:50;;;;;;;2.80;2.60;;;;;;;17.57;83.84;97709.63;6252599;28;20599;-69
2022/05/21 01:35:52;;;;;;;4.77;2.40;;;;;;;17.56;84.09;97695.50;6252138;28;20227;-69
2022/05/21 01:38:54;;;;;;;2.80;2.53;;;;;;;17.51;84.37;97687.13;6251361;28;20261;-69
2022/05/21 01:41:56;;;;;;;5.47;2.57;;;;;;;17.50;84.48;97676.63;6234832;28;20377;-70
2022/05/21 01:44:59;;;;;;;4.17;2.67;;;;;;;17.51;84.48;97679.13;6251317;28;20235;-70
2022/05/21 01:48:02;;;;;;;2.83;2.20;;;;;;;17.50;84.85;97685.47;6252282;28;20281;-69
2022/05/21 01:51:06;;;;;;;4.43;2.73;;;;;;;17.48;84.88;97666.13;6254858;28;20223;-69
2022/05/21 01:54:09;;;;;;;5.87;3.17;;;;;;;17.39;85.07;97675.13;6252037;28;20609;-69
2022/05/21 01:57:11;;;;;;;2.77;2.40;;;;;;;17.28;85.22;97673.59;6234065;28;20341;-70
2022/05/21 02:00:15;;;;;;;2.70;2.50;;;;;;;17.24;85.65;97685.63;6252072;28;20223;-69
2022/05/21 03:02:50;;;;;;;8.23;3.90;;;;;;;16.41;89.77;97835.66;4065885;28;20251;-69
2022/05/21 03:05:53;;;;;;;12.07;5.63;;;;;;;16.49;89.92;97847.22;6256504;28;20219;-68
2022/05/21 03:12:15;;;;;;;11.73;4.90;;;;;;;16.63;90.14;97845.00;6255079;28;20538;-68
2022/05/21 03:15:20;;;;;;;8.40;4.60;;;;;;;16.74;90.17;97874.91;6255588;28;20298;-68
2022/05/21 03:18:22;;;;;;;9.27;5.17;;;;;;;16.82;90.25;97847.47;6255138;28;20552;-68
2022/05/21 03:21:24;;;;;;;6.63;4.30;;;;;;;16.85;90.27;97866.66;6256238;28;20230;-68
2022/05/21 03:24:28;;;;;;;11.13;4.73;;;;;;;16.86;90.36;97864.81;6238640;28;20235;-68
2022/05/21 03:27:30;;;;;;;8.97;4.03;;;;;;;16.85;90.40;97839.16;6254824;28;20227;-69
2022/05/21 03:30:34;;;;;;;10.80;4.13;;;;;;;16.85;90.29;97829.31;6256379;28;20227;-69
2022/05/21 03:33:36;;;;;;;6.23;3.87;;;;;;;16.84;90.35;97838.31;6237428;28;20235;-68
2022/05/21 03:36:38;;;;;;;5.73;3.33;;;;;;;16.84;90.19;97848.97;6254094;28;20635;-68
2022/05/21 03:39:41;;;;;;;6.13;2.97;;;;;;;16.85;90.04;97844.47;6254784;28;20235;-69
2022/05/21 03:42:43;;;;;;;5.00;3.20;;;;;;;16.81;90.08;97833.28;6253868;28;20274;-69
2022/05/21 03:45:46;;;;;;;5.33;3.10;;;;;;;16.80;89.90;97812.97;6253370;28;20226;-69
2022/05/21 03:48:48;;;;;;;6.90;3.70;;;;;;;16.81;89.75;97803.97;6254705;28;20230;-69
2022/05/21 03:51:51;;;;;;;5.67;3.17;;;;;;;16.83;89.68;97788.66;6255370;28;20235;-69
2022/05/21 03:54:53;;;;;;;9.00;3.70;;;;;;;16.86;89.99;97776.84;6254567;28;20235;-69
2022/05/21 03:57:55;;;;;;;5.10;3.43;;;;;;;16.88;89.86;97770.34;6254219;28;20242;-69
2022/05/21 04:00:57;;;;;;;3.73;3.10;;;;;;;16.92;89.85;97771.69;6254816;28;20219;-68
2022/05/21 04:04:00;;;;;;;6.77;3.30;;;;;;;16.93;89.66;97761.88;6180064;28;20619;-68
2022/05/21 04:07:04;;;;;;;6.17;3.70;;;;;;;16.92;89.80;97760.19;6254190;28;20231;-69
2022/05/21 04:10:08;;;;;;;3.83;3.07;;;;;;;16.92;89.50;97762.88;6253849;28;20227;-69
2022/05/21 04:13:10;;;;;;;6.70;3.80;;;;;;;16.86;89.69;97767.03;6235945;28;20241;-69
2022/05/21 04:16:12;;;;;;;4.53;3.13;;;;;;;16.81;89.44;97779.97;6236538;28;20235;-68
2022/05/21 04:19:15;;;;;;;5.63;3.23;;;;;;;16.81;88.92;97793.31;6253523;28;20246;-68
2022/05/21 04:22:17;;;;;;;4.30;3.17;;;;;;;16.84;88.49;97778.84;6253507;28;20564;-69
2022/05/21 04:25:19;;;;;;;7.77;3.13;;;;;;;16.82;88.33;97778.16;6236440;28;20389;-68
2022/05/21 04:28:21;;;;;;;6.30;3.30;;;;;;;16.88;86.79;97786.34;6234813;28;20272;-68
2022/05/21 04:31:23;;;;;;;4.13;2.93;;;;;;;16.94;86.90;97793.72;6252736;28;20337;-68
2022/05/21 04:34:33;;;;;;;5.30;3.10;;;;;;;16.94;86.96;97793.72;6253740;28;20644;-68
2022/05/21 04:37:39;;;;;;;4.20;3.30;;;;;;;16.93;87.30;97793.88;6253271;28;20289;-69
2022/05/21 04:40:42;;;;;;;6.37;3.53;;;;;;;16.90;87.78;97780.84;6234970;28;20387;-69
2022/05/21 04:43:44;;;;;;;4.47;3.30;;;;;;;16.88;87.96;97797.00;6235250;28;20813;-69
2022/05/21 04:46:46;;;;;;;6.53;3.27;;;;;;;16.93;87.57;97788.53;6252585;28;20314;-70
2022/05/21 04:49:49;;;;;;;6.00;3.40;;;;;;;16.90;87.69;97786.19;6235610;28;20258;-69
2022/05/21 04:52:51;;;;;;;5.70;3.43;;;;;;;16.93;86.69;97786.69;6235337;28;20215;-69
2022/05/21 04:55:53;;;;;;;6.53;3.40;;;;;;;17.09;86.06;97806.41;6252550;28;20219;-70
2022/05/21 04:58:55;;;;;;;3.77;3.07;;;;;;;17.12;86.14;97803.44;6252751;28;20229;-69
2022/05/21 06:05:32;;;;;;;4.70;3.67;;;;;;;18.34;82.41;97816.00;6222485;28;20235;-69
2022/05/21 06:08:34;;;;;;;5.97;3.50;;;;;;;18.35;81.10;97824.84;6216246;28;20224;-69
2022/05/21 06:11:38;;;;;;;4.30;3.90;;;;;;;18.44;79.40;97834.53;6231594;28;20223;-69
2022/05/21 06:14:41;;;;;;;7.87;4.10;;;;;;;18.56;79.58;97821.66;6203574;28;20245;-68
2022/05/21 06:17:44;;;;;;;7.87;3.73;;;;;;;18.54;78.74;97829.00;6228286;28;20236;-69
2022/05/21 06:20:46;;;;;;;6.33;3.80;;;;;;;18.55;79.29;97833.34;6230437;28;20273;-68
2022/05/21 06:23:48;;;;;;;6.33;3.47;;;;;;;18.53;79.63;97836.19;6225044;28;20235;-69
2022/05/21 06:26:51;;;;;;;8.33;4.43;;;;;;;18.58;78.48;97847.22;6200477;28;20232;-68
2022/05/21 06:29:53;;;;;;;6.07;3.10;;;;;;;18.68;77.63;97847.03;6225524;28;20223;-69
2022/05/21 06:32:56;;;;;;;6.27;3.57;;;;;;;18.80;77.86;97856.38;6229741;28;21550;-70
2022/05/21 06:36:11;;;;;;;5.80;3.20;;;;;;;18.87;75.52;97860.03;6224605;28;20593;-69
2022/05/21 06:39:13;;;;;;;7.47;3.73;;;;;;;18.94;75.82;97855.69;6219538;28;20223;-70
2022/05/21 06:42:15;;;;;;;6.67;3.80;;;;;;;19.07;75.99;97858.63;6231097;28;20220;-69
2022/05/21 06:45:19;;;;;;;6.73;3.47;;;;;;;19.21;76.35;97862.44;6212165;28;20228;-69
2022/05/21 06:48:21;;;;;;;5.87;3.67;;;;;;;19.26;74.43;97864.63;6226847;28;20595;-69
2022/05/21 06:51:23;;;;;;;6.17;3.33;;;;;;;19.24;73.10;97864.78;6191579;28;20381;-69
2022/05/21 06:54:26;;;;;;;6.53;3.43;;;;;;;19.31;72.24;97867.59;6221740;28;20578;-69
2022/05/21 06:57:29;;;;;;;4.70;3.50;;;;;;;19.43;72.79;97871.56;6226633;28;20235;-70
2022/05/21 07:00:31;;;;;;;4.40;3.10;;;;;;;19.62;71.90;97873.00;6232241;28;20625;-71
2022/05/21 07:03:34;;;;;;;4.10;3.60;;;;;;;19.60;71.29;97875.84;6239773;28;20602;-70
2022/05/21 07:09:58;;;;;;;6.33;3.77;;;;;;;19.75;71.92;97884.00;6229606;28;20223;-71
2022/05/21 07:13:01;;;;;;;3.93;3.50;;;;;;;19.62;71.57;97886.41;6217112;28;20223;-70
2022/05/21 07:16:05;;;;;;;3.63;3.00;;;;;;;19.77;70.52;97888.16;6228920;28;20693;-71
2022/05/21 07:19:07;;;;;;;5.03;3.00;;;;;;;19.86;70.51;97900.47;6212767;28;20405;-71
2022/05/21 07:22:10;;;;;;;5.63;2.90;;;;;;;20.01;69.16;97892.53;6203505;28;20834;-71
2022/05/21 07:25:18;;;;;;;4.57;2.80;;;;;;;20.26;69.38;97880.63;6239945;28;20234;-71
2022/05/21 07:28:20;;;;;;;6.67;3.03;;;;;;;20.49;69.44;97886.00;6192862;28;20350;-70
2022/05/21 07:31:22;;;;;;;9.63;3.83;;;;;;;20.59;68.29;97891.94;6240761;28;20220;-72
2022/05/21 07:34:24;;;;;;;12.87;3.33;;;;;;;20.84;68.36;97886.38;6231444;28;20227;-71
2022/05/21 07:37:27;;;;;;;4.17;3.13;;;;;;;21.06;66.96;97884.66;6229790;28;20233;-71
2022/05/21 07:40:29;;;;;;;6.93;2.93;;;;;;;21.20;65.87;97883.84;6247993;28;20594;-72
2022/05/21 07:43:37;;;;;;;5.30;3.10;;;;;;;21.32;65.09;97891.25;6237960;28;20254;-72
2022/05/21 07:46:39;;;;;;;4.17;2.90;;;;;;;21.49;65.43;97893.72;6222483;28;20318;-72
2022/05/21 07:49:42;;;;;;;4.10;3.10;;;;;;;21.60;65.11;97890.56;6228160;28;20232;-72
2022/05/21 07:52:44;;;;;;;6.60;4.10;;;;;;;21.85;64.08;97891.09;6209196;28;20730;-71
2022/05/21 07:55:48;;;;;;;4.10;2.90;;;;;;;22.23;64.27;97895.25;6195968;28;20236;-64
2022/05/21 07:58:50;;;;;;;4.50;3.40;;;;;;;22.71;61.64;97890.09;6210065;28;20702;-64
2022/05/21 08:01:53;;;;;;;5.03;3.77;;;;;;;23.01;60.85;97891.63;6137640;28;1266301;-69
2022/05/21 08:04:55;;;;;;;6.13;3.63;;;;;;;23.32;60.13;97884.97;6227814;28;20250;-69
2022/05/21 08:07:57;;;;;;;5.37;3.37;;;;;;;23.01;60.26;97894.31;6237484;28;20266;-69
2022/05/21 08:10:59;;;;;;;4.50;3.53;;;;;;;23.16;58.97;97886.09;6241507;28;20215;-69
2022/05/21 08:14:02;;;;;;;4.53;3.13;;;;;;;23.13;58.74;97894.59;6210701;28;20227;-70
2022/05/21 08:17:04;;;;;;;7.53;3.57;;;;;;;23.54;58.95;97895.50;6234187;28;20310;-70
2022/05/21 08:20:07;;;;;;;5.73;3.47;;;;;;;24.07;57.15;97892.97;6230237;28;20220;-70
2022/05/21 08:26:59;;;;;;;6.87;3.50;;;;;;;23.55;55.56;97909.81;6240206;23;20241;-45
2022/05/21 08:30:03;;;;;;;6.53;3.07;;;;;;;23.82;53.61;97897.25;6209178;28;20335;-44
2022/05/21 08:33:06;;;;;;;5.23;2.83;;;;;;;23.58;54.63;97903.16;6202767;28;20295;-44
2022/05/21 08:36:09;;;;;;;4.83;2.97;;;;;;;24.31;53.68;97898.88;6202149;28;20220;-43
2022/05/21 08:39:18;;;;;;;3.83;2.57;;;;;;;24.51;53.61;97900.56;6203526;28;20228;-43
2022/05/21 08:42:38;;;;;;;4.67;3.20;;;;;;;24.59;53.29;97896.84;6201890;28;20774;-43
2022/05/21 08:46:17;;;;;;;3.33;2.33;;;;;;;25.17;51.03;97888.94;6196066;28;20722;-44
2022/05/21 08:49:29;;;;;;;4.97;2.63;;;;;;;25.17;48.75;97902.44;6177528;28;20233;-45
2022/05/21 08:52:52;;;;;;;4.93;2.40;;;;;;;24.90;48.69;97898.91;6199093;28;20331;-43
2022/05/21 08:55:58;;;;;;;7.00;2.53;;;;;;;25.41;49.38;97901.78;6200674;28;20313;-45
2022/05/21 08:59:04;;;;;;;3.87;2.43;;;;;;;25.52;48.53;97894.91;6181223;28;20326;-45
2022/05/21 09:02:14;;;;;;;4.88;2.05;;;;;;;25.71;49.28;97885.91;6201661;28;20344;-46
2022/05/21 09:05:19;;;;;;;3.28;2.40;;;;;;;25.55;47.17;97891.78;6182713;28;20240;-45
2022/05/21 09:08:42;;;;;;;5.78;2.88;;;;;;;25.44;46.27;97889.72;6208664;28;20651;-46
2022/05/21 09:12:20;;;;;;;3.33;2.20;;;;;;;25.92;48.90;97890.19;6215621;28;20286;-45
2022/05/21 09:18:48;;;;;;;3.55;2.20;;;;;;;26.18;44.44;97890.03;6220369;28;20231;-45
2022/05/21 09:21:59;;;;;;;4.35;2.00;;;;;;;26.71;43.82;97882.44;6222741;28;20224;-46
2022/05/21 09:25:15;;;;;;;3.78;1.92;;;;;;;27.08;44.29;97887.97;6218152;28;20243;-44
2022/05/21 09:28:20;;;;;;;2.97;2.00;;;;;;;27.07;41.98;97897.97;6244993;28;20232;-45
2022/05/21 09:31:31;;;;;;;2.55;2.30;;;;;;;26.93;39.99;97901.88;6238884;28;20378;-45
2022/05/21 09:34:36;;;;;;;6.95;2.50;;;;;;;27.36;41.00;97885.59;6218716;28;20232;-45
2022/05/21 09:37:41;;;;;;;4.15;2.00;;;;;;;27.02;40.06;97891.56;6243803;28;20219;-46
2022/05/21 09:40:43;;;;;;;7.30;2.28;;;;;;;25.98;41.46;97876.63;6243137;28;20350;-46
2022/05/21 09:47:39;;;;;;;3.95;2.08;;;;;;;26.35;42.86;97877.69;6236585;28;20314;-46
2022/05/21 09:50:49;;;;;;;4.30;1.92;;;;;;;26.30;41.83;97890.22;6245802;28;20300;-43
2022/05/21 09:53:52;;;;;;;5.30;2.17;;;;;;;25.94;43.74;97882.72;6238093;28;20266;-44
2022/05/21 09:56:57;;;;;;;4.45;2.38;;;;;;;26.22;43.39;97882.34;6244550;28;20284;-45
2022/05/21 10:00:19;;;;;;;3.00;1.92;;;;;;;27.11;43.66;97873.97;6243981;28;20226;-48
2022/05/21 10:03:36;;;;;;;2.88;2.00;;;;;;;26.86;41.54;97879.38;6245086;28;20324;-46
2022/05/21 10:06:44;;;;;;;3.72;1.50;;;;;;;27.09;42.13;97870.66;6243427;28;20300;-43
2022/05/21 10:13:20;;;;;;;9.23;2.03;;;;;;;27.54;42.58;97876.66;6242364;28;20228;-47
2022/05/21 10:16:39;;;;;;;5.38;1.88;;;;;;;27.29;39.61;97868.56;6236525;28;20231;-44
2022/05/21 10:20:07;;;;;;;3.00;2.00;;;;;;;27.19;40.03;97874.50;6237119;28;20369;-46
2022/05/21 10:23:48;;;;;;;2.25;1.60;;;;;;;26.68;40.14;97879.31;6244724;28;20309;-45
2022/05/21 10:26:51;;;;;;;3.20;1.70;;;;;;;27.06;39.14;97866.50;6122714;28;20243;-47
2022/05/21 10:30:15;;;;;;;3.85;1.58;;;;;;;26.83;42.23;97869.00;6125436;28;20718;-47
2022/05/21 10:33:47;;;;;;;1.98;1.67;;;;;;;27.04;37.69;97878.66;6123521;28;20227;-44
2022/05/21 10:37:24;;;;;;;3.90;1.80;;;;;;;26.86;40.88;97870.41;6132525;28;20269;-46
2022/05/21 10:40:47;;;;;;;2.83;1.60;;;;;;;27.49;38.47;97866.47;6131533;28;20230;-47
2022/05/21 10:44:13;;;;;;;2.47;1.77;;;;;;;27.32;38.26;97870.00;6123297;28;20267;-44
2022/05/21 10:47:38;;;;;;;2.97;1.80;;;;;;;27.11;37.35;97873.97;6141004;28;20373;-44
2022/05/21 10:50:55;;;;;;;6.13;1.65;;;;;;;27.60;39.62;97877.66;6145416;28;20238;-45
2022/05/21 10:54:17;;;;;;;1.90;1.10;;;;;;;27.75;33.19;97892.47;6146488;28;20310;-43
2022/05/21 10:57:22;;;;;;;1.52;1.20;;;;;;;27.89;32.66;97872.28;6136084;28;20253;-46
2022/05/21 11:01:07;;;;;;;3.50;1.30;;;;;;;28.00;33.38;97864.41;6174853;28;20234;-48
2022/05/21 11:04:20;;;;;;;3.58;1.52;;;;;;;28.70;35.51;97886.38;6245019;28;20232;-47
2022/05/21 11:07:25;;;;;;;2.05;1.70;;;;;;;28.72;33.25;97874.22;6245122;28;20329;-49
2022/05/21 11:10:36;;;;;;;2.55;1.52;;;;;;;28.71;32.75;97864.41;6242618;28;20240;-48
2022/05/21 11:13:46;;;;;;;2.75;1.33;;;;;;;29.32;34.14;97863.16;6253268;28;20231;-44
2022/05/21 11:17:15;;;;;;;2.00;1.20;;;;;;;29.29;31.13;97866.34;6247570;28;20366;-45
2022/05/21 11:20:23;;;;;;;3.10;1.23;;;;;;;29.04;32.99;97865.78;6237262;28;20223;-46
2022/05/21 11:23:34;;;;;;;4.20;1.10;;;;;;;28.90;30.04;97859.75;6247155;28;20235;-44
2022/05/21 11:26:39;;;;;;;2.25;1.42;;;;;;;28.91;31.00;97861.41;6244851;28;20288;-46
2022/05/21 11:29:50;;;;;;;1.45;1.20;;;;;;;28.66;33.00;97864.28;6247287;28;20223;-45
2022/05/21 11:39:43;;;;;;;3.35;1.25;;;;;;;29.46;29.99;97870.00;6242029;28;20547;-48
2022/05/21 11:42:50;;;;;;;2.40;1.45;;;;;;;29.69;33.36;97867.25;6244666;28;20238;-46
2022/05/21 11:46:04;;;;;;;2.88;1.10;;;;;;;29.80;30.80;97859.28;6246194;28;20382;-46
2022/05/21 11:49:25;;;;;;;3.72;1.65;;;;;;;29.78;28.77;97864.16;6235804;28;20227;-46
2022/05/21 11:52:27;;;;;;;2.80;1.30;;;;;;;29.46;31.25;97850.97;6243118;28;20412;-45
2022/05/21 11:55:50;;;;;;;2.50;1.00;;;;;;;29.75;31.39;97853.78;6244376;28;20296;-45
2022/05/21 11:58:59;;;;;;;2.72;1.13;;;;;;;30.08;29.63;97859.34;6243779;28;20311;-47
2022/05/21 12:02:18;;;;;;;2.88;1.23;;;;;;;29.70;30.30;97857.19;6241264;28;20281;-43
2022/05/21 12:05:37;;;;;;;2.63;1.33;;;;;;;29.85;31.69;97856.69;6239573;28;20285;-48
2022/05/21 12:08:46;;;;;;;2.15;1.05;;;;;;;29.68;30.36;97838.38;6244124;28;20243;-48
2022/05/21 12:11:49;;;;;;;2.53;1.20;;;;;;;29.72;29.14;97845.00;6241932;28;20342;-44
2022/05/21 12:15:09;;;;;;;2.15;1.30;;;;;;;30.09;30.39;97839.22;6240983;28;20228;-45
2022/05/21 12:18:37;;;;;;;2.88;1.30;;;;;;;30.35;30.52;97840.50;6234896;28;20298;-45
2022/05/21 12:21:51;;;;;;;2.15;1.25;;;;;;;30.49;27.71;97835.56;6240687;28;20758;-43
2022/05/21 12:24:53;;;;;;;3.55;1.58;;;;;;;30.23;27.63;97835.13;6239975;28;20265;-46
2022/05/21 12:27:59;;;;;;;3.63;1.33;;;;;;;30.17;29.20;97837.97;6243194;28;20437;-45
2022/05/21 12:31:09;;;;;;;3.05;1.10;;;;;;;30.26;30.47;97852.84;6239927;28;20346;-45
2022/05/21 12:34:21;;;;;;;1.50;1.20;;;;;;;29.49;29.25;97831.47;6243519;28;20691;-44
2022/05/21 12:37:34;;;;;;;2.95;1.20;;;;;;;30.26;28.62;97836.50;6239030;28;20599;-45
2022/05/21 12:41:16;;;;;;;2.75;1.30;;;;;;;30.65;27.48;97842.94;6248164;28;20238;-45
2022/05/21 12:44:42;;;;;;;2.38;1.38;;;;;;;31.30;27.45;97818.59;6244500;28;20228;-45
2022/05/21 12:47:45;;;;;;;3.55;1.48;;;;;;;31.45;28.41;97812.50;6244094;28;20576;-43
2022/05/21 12:50:59;;;;;;;2.95;1.30;;;;;;;31.66;28.54;97808.16;6230360;28;20235;-43
2022/05/21 12:54:05;;;;;;;2.85;1.40;;;;;;;31.58;28.20;97808.59;6231684;28;20629;-43
2022/05/21 12:57:12;;;;;;;2.45;1.15;;;;;;;30.57;27.53;97806.03;6228065;28;20251;-44
2022/05/21 13:00:18;;;;;;;4.95;1.70;;;;;;;30.29;26.62;97806.91;6247115;28;20215;-43
2022/05/21 13:03:22;;;;;;;3.60;1.38;;;;;;;30.58;27.99;97802.25;6242240;28;20204;-45
2022/05/21 13:06:28;;;;;;;2.30;1.13;;;;;;;30.76;27.76;97793.81;6243906;28;20322;-47
2022/05/21 13:09:34;;;;;;;2.67;1.00;;;;;;;30.89;26.88;97806.25;6241013;28;20242;-44
2022/05/21 13:12:44;;;;;;;2.08;1.20;;;;;;;30.55;27.60;97782.81;6241801;28;20235;-47
2022/05/21 13:15:56;;;;;;;2.83;1.30;;;;;;;30.63;27.60;97782.44;6241889;28;20222;-48
2022/05/21 13:19:37;;;;;;;2.72;1.15;;;;;;;30.76;27.31;97782.91;6239364;28;20313;-45
2022/05/21 13:23:02;;;;;;;1.38;1.23;;;;;;;31.41;27.49;97778.66;6238519;28;20281;-45
2022/05/21 13:26:05;;;;;;;2.08;1.00;;;;;;;31.94;26.43;97794.31;6243078;28;20227;-45
2022/05/21 13:29:19;;;;;;;1.33;1.10;;;;;;;31.27;25.91;97763.72;6247387;28;20219;-44
2022/05/21 13:32:29;;;;;;;4.90;1.27;;;;;;;31.16;26.25;97765.50;6230621;28;20227;-44
2022/05/21 13:35:38;;;;;;;2.00;1.00;;;;;;;31.17;25.99;97750.78;6235119;28;20263;-45
2022/05/21 13:38:44;;;;;;;1.80;1.20;;;;;;;31.67;25.39;97763.41;6246423;28;20292;-44
2022/05/21 13:41:47;;;;;;;2.35;1.27;;;;;;;31.45;26.30;97758.78;6247477;28;20215;-47
2022/05/21 13:44:50;;;;;;;1.77;1.02;;;;;;;31.69;25.82;97748.44;6251436;28;20376;-46
2022/05/21 13:48:04;;;;;;;2.97;0.90;;;;;;;32.44;25.58;97746.72;6245591;28;20616;-48
2022/05/21 13:51:12;;;;;;;1.08;0.77;;;;;;;32.74;25.59;97765.28;6240526;28;20337;-44
2022/05/21 13:54:14;;;;;;;1.80;1.20;;;;;;;33.32;24.83;97745.94;6237864;28;20294;-43
2022/05/21 13:57:28;;;;;;;1.92;1.10;;;;;;;34.58;23.79;97741.78;6234500;28;20200;-45
2022/05/21 14:00:34;;;;;;;1.83;1.10;;;;;;;33.91;22.64;97747.50;6235084;28;20238;-48
2022/05/21 14:03:45;;;;;;;1.95;1.00;;;;;;;33.22;21.73;97753.25;6236629;28;20227;-44
2022/05/21 14:06:47;;;;;;;1.73;0.93;;;;;;;34.30;21.24;97736.88;6240341;28;20607;-47
2022/05/21 14:09:55;;;;;;;2.72;1.10;;;;;;;35.70;20.36;97739.56;6238418;28;20324;-43
2022/05/21 14:12:58;;;;;;;1.88;1.10;;;;;;;37.02;19.16;97732.22;6225580;28;20322;-45
2022/05/21 14:16:08;;;;;;;2.70;0.80;;;;;;;36.45;19.37;97733.84;6242431;28;20510;-43
2022/05/21 14:19:31;;;;;;;2.50;0.73;;;;;;;38.41;18.91;97717.91;6248102;28;20266;-46
2022/05/21 14:22:34;;;;;;;2.80;0.88;;;;;;;39.61;16.80;97726.97;6233695;28;20777;-47
2022/05/21 14:25:38;;;;;;;0.98;0.70;;;;;;;39.88;16.05;97717.81;6242754;28;20246;-47
2022/05/21 14:28:41;;;;;;;1.73;0.90;;;;;;;39.22;16.69;97713.69;6250080;28;20392;-46
2022/05/21 14:31:43;;;;;;;0.70;0.70;;;;;;;38.96;16.02;97721.63;6242782;28;20234;-45
2022/05/21 14:34:49;;;;;;;3.78;1.00;;;;;;;40.12;16.18;97707.28;6251367;28;20436;-42
2022/05/21 14:37:55;;;;;;;1.10;0.77;;;;;;;41.57;14.93;97700.06;6236900;28;20228;-45
2022/05/21 14:40:58;;;;;;;1.50;0.77;;;;;;;42.40;14.38;97688.84;6241553;28;20228;-45
2022/05/21 14:44:02;;;;;;;0.93;0.70;;;;;;;42.23;14.21;97700.72;6249610;28;20270;-46
2022/05/21 14:53:56;;;;;;;1.25;0.70;;;;;;;38.15;16.50;97670.63;6242177;28;20669;-44
2022/05/21 14:56:58;;;;;;;1.83;0.80;;;;;;;36.45;18.21;97674.16;6246149;28;20223;-44
2022/05/21 15:00:01;;;;;;;1.45;0.75;;;;;;;35.88;17.76;97674.91;6231416;28;20215;-45
2022/05/21 15:03:04;;;;;;;1.63;0.93;;;;;;;34.35;19.45;97676.56;6252170;28;20252;-46
2022/05/21 15:06:06;;;;;;;1.10;1.00;;;;;;;35.01;19.33;97680.00;6240884;28;20474;-44
2022/05/21 15:09:10;;;;;;;4.97;0.85;;;;;;;35.87;18.19;97665.84;6239631;28;20646;-45
2022/05/21 15:12:12;;;;;;;2.20;1.08;;;;;;;36.81;18.93;97668.31;6237553;28;20251;-46
2022/05/21 15:15:16;;;;;;;0.68;0.68;;;;;;;35.83;19.34;97666.72;6247522;28;20223;-47
2022/05/21 15:18:19;;;;;;;0.68;0.60;;;;;;;35.64;19.70;97658.28;6244478;28;20228;-48
2022/05/21 15:21:29;;;;;;;0.98;0.80;;;;;;;35.51;19.32;97661.69;6243410;28;20264;-44
2022/05/21 15:24:33;;;;;;;1.10;0.75;;;;;;;34.90;20.28;97658.38;6242732;28;20808;-45
2022/05/21 15:27:39;;;;;;;0.77;0.77;;;;;;;36.63;18.09;97661.63;6244676;28;20368;-48
2022/05/21 15:30:41;;;;;;;1.13;0.70;;;;;;;37.47;16.67;97656.50;6242282;28;20230;-45
2022/05/21 15:33:45;;;;;;;3.58;1.88;;;;;;;38.00;19.02;97670.88;6252181;28;20310;-47
2022/05/21 15:36:47;;;;;;;2.83;1.40;;;;;;;37.74;19.44;97659.41;6244624;28;20600;-47
2022/05/21 15:39:52;;;;;;;1.63;1.02;;;;;;;37.19;17.46;97661.81;6235082;28;20265;-45
2022/05/21 15:42:54;;;;;;;1.70;1.00;;;;;;;36.87;20.12;97659.72;6232909;28;20236;-47
2022/05/21 15:46:03;;;;;;;1.83;1.45;;;;;;;36.43;21.42;97659.91;6252400;28;20779;-47
2022/05/21 15:49:05;;;;;;;5.32;1.15;;;;;;;36.20;21.51;97652.38;6250014;28;20777;-45
2022/05/21 15:52:32;;;;;;;1.98;0.80;;;;;;;34.93;20.41;97657.84;6236682;28;20232;-48
2022/05/21 15:55:36;;;;;;;1.42;0.60;;;;;;;34.41;19.55;97646.16;6244299;28;20227;-44
2022/05/21 15:58:38;;;;;;;0.68;0.68;;;;;;;34.47;20.11;97635.16;6245523;28;20534;-43
2022/05/21 16:02:01;;;;;;;0.93;0.80;;;;;;;33.42;22.44;97646.63;6217009;28;20295;-46
2022/05/21 16:05:04;;;;;;;0.80;0.80;;;;;;;33.17;21.66;97639.13;6245255;28;20232;-45
2022/05/21 16:08:06;;;;;;;1.17;0.80;;;;;;;33.88;20.00;97647.53;6226340;28;20306;-46
2022/05/21 16:11:19;;;;;;;1.85;0.70;;;;;;;33.91;19.77;97641.50;6241757;28;20320;-45
2022/05/21 16:14:22;;;;;;;1.27;1.17;;;;;;;34.00;21.24;97644.53;6243156;28;20219;-47
2022/05/21 16:17:26;;;;;;;1.05;0.80;;;;;;;34.92;19.38;97631.50;6238571;28;20227;-45
2022/05/21 16:20:28;;;;;;;1.58;0.88;;;;;;;33.78;20.71;97635.75;6245128;28;20223;-44
2022/05/21 16:23:31;;;;;;;0.80;0.65;;;;;;;31.98;22.10;97628.88;6229355;28;20304;-47
2022/05/21 16:29:57;;;;;;;0.77;0.77;;;;;;;28.84;25.92;97622.41;6232007;28;20305;-47
2022/05/21 16:33:01;;;;;;;1.38;0.80;;;;;;;27.88;27.43;97621.03;6247106;28;20234;-44
2022/05/21 16:36:03;;;;;;;0.90;0.60;;;;;;;27.18;28.33;97623.53;6227535;28;20594;-44
2022/05/21 16:39:07;;;;;;;3.10;0.60;;;;;;;26.62;30.53;97620.28;6230850;28;20262;-43
2022/05/21 16:42:10;;;;;;;0.77;0.70;;;;;;;26.09;29.92;97628.94;6244867;28;20216;-47
2022/05/21 16:45:16;;;;;;;0.80;0.80;;;;;;;25.53;31.53;97635.22;6241807;28;20243;-45
2022/05/21 16:48:21;;;;;;;1.45;1.35;;;;;;;25.12;30.12;97640.25;6240013;28;20600;-43
2022/05/21 16:51:23;;;;;;;0.60;0.57;;;;;;;24.84;29.61;97627.91;6245555;28;20239;-45
2022/05/21 16:54:29;;;;;;;2.45;0.73;;;;;;;24.49;29.54;97615.78;6224916;28;20234;-45
2022/05/21 16:57:31;;;;;;;0.82;0.65;;;;;;;24.35;29.97;97622.28;6246797;28;20336;-45
2022/05/21 17:00:34;;;;;;;0.80;0.50;;;;;;;24.19;30.51;97612.72;6221962;28;20338;-47
2022/05/21 17:03:37;;;;;;;1.17;0.70;;;;;;;24.22;31.25;97609.63;6239192;28;20697;-48
2022/05/21 17:06:41;;;;;;;1.45;1.02;;;;;;;23.95;33.71;97619.63;6244042;28;20311;-45
2022/05/21 17:09:43;;;;;;;1.60;0.77;;;;;;;23.69;32.79;97615.06;6239797;28;20234;-45
2022/05/21 17:12:47;;;;;;;2.15;0.77;;;;;;;23.53;33.30;97620.88;6240773;28;20245;-45
2022/05/21 17:15:50;;;;;;;0.93;0.80;;;;;;;23.46;35.40;97623.50;6241305;28;20223;-44
2022/05/21 17:18:53;;;;;;;1.13;1.02;;;;;;;23.18;35.64;97628.22;6245682;28;20258;-45
2022/05/21 17:22:14;;;;;;;3.42;0.90;;;;;;;22.98;33.70;97627.34;6239753;28;20224;-43
2022/05/21 17:25:17;;;;;;;0.80;0.80;;;;;;;22.85;36.65;97632.72;6239972;28;20220;-47